sensor_id;sensor_type;location;lat;lon;timestamp;P1;durP1;ratioP1;P2;durP2;ratioP2
9906;SDS011;4992;51.628;6.664;2023-03-24T00:01:01;2.22;;;1.60;;
9906;SDS011;4992;51.628;6.664;2023-03-24T00:03:28;2.80;;;1.38;;
9906;SDS011;4992;51.628;6.664;2023-03-24T00:05:55;2.10;;;1.73;;
9906;SDS011;4992;51.628;6.664;2023-03-24T00:08:27;3.90;;;1.48;;
9906;SDS011;4992;51.628;6.664;2023-03-24T00:10:56;2.65;;;1.75;;
9906;SDS011;4992;51.628;6.664;2023-03-24T00:13:24;2.97;;;1.98;;
9906;SDS011;4992;51.628;6.664;2023-03-24T00:15:49;2.25;;;1.85;;
9906;SDS011;4992;51.628;6.664;2023-03-24T00:18:15;4.38;;;2.05;;
9906;SDS011;4992;51.628;6.664;2023-03-24T00:20:40;3.08;;;1.67;;
9906;SDS011;4992;51.628;6.664;2023-03-24T00:23:09;3.88;;;1.63;;
9906;SDS011;4992;51.628;6.664;2023-03-24T00:25:36;3.97;;;1.33;;
9906;SDS011;4992;51.628;6.664;2023-03-24T00:28:04;2.58;;;1.27;;
9906;SDS011;4992;51.628;6.664;2023-03-24T00:30:31;4.35;;;1.80;;
9906;SDS011;4992;51.628;6.664;2023-03-24T00:32:57;1.67;;;1.50;;
9906;SDS011;4992;51.628;6.664;2023-03-24T00:35:25;2.10;;;1.77;;
9906;SDS011;4992;51.628;6.664;2023-03-24T00:37:51;2.75;;;2.13;;
9906;SDS011;4992;51.628;6.664;2023-03-24T00:40:18;3.45;;;1.83;;
9906;SDS011;4992;51.628;6.664;2023-03-24T00:42:45;2.55;;;1.38;;
9906;SDS011;4992;51.628;6.664;2023-03-24T00:45:14;2.85;;;1.75;;
9906;SDS011;4992;51.628;6.664;2023-03-24T00:47:42;2.85;;;1.98;;
9906;SDS011;4992;51.628;6.664;2023-03-24T00:50:11;2.35;;;1.50;;
9906;SDS011;4992;51.628;6.664;2023-03-24T00:52:40;4.88;;;1.83;;
9906;SDS011;4992;51.628;6.664;2023-03-24T00:55:08;1.65;;;1.52;;
9906;SDS011;4992;51.628;6.664;2023-03-24T00:57:37;2.30;;;1.70;;
9906;SDS011;4992;51.628;6.664;2023-03-24T01:00:05;2.13;;;1.65;;
9906;SDS011;4992;51.628;6.664;2023-03-24T01:02:38;2.97;;;1.60;;
9906;SDS011;4992;51.628;6.664;2023-03-24T01:05:04;2.90;;;1.60;;
9906;SDS011;4992;51.628;6.664;2023-03-24T01:07:30;2.97;;;1.75;;
9906;SDS011;4992;51.628;6.664;2023-03-24T01:09:57;1.85;;;1.60;;
9906;SDS011;4992;51.628;6.664;2023-03-24T01:12:24;2.30;;;1.45;;
9906;SDS011;4992;51.628;6.664;2023-03-24T01:14:57;3.38;;;2.53;;
9906;SDS011;4992;51.628;6.664;2023-03-24T01:17:24;3.70;;;1.85;;
9906;SDS011;4992;51.628;6.664;2023-03-24T01:19:51;2.47;;;1.83;;
9906;SDS011;4992;51.628;6.664;2023-03-24T01:22:17;3.28;;;1.85;;
9906;SDS011;4992;51.628;6.664;2023-03-24T01:24:44;1.63;;;1.52;;
9906;SDS011;4992;51.628;6.664;2023-03-24T01:27:11;2.08;;;1.83;;
9906;SDS011;4992;51.628;6.664;2023-03-24T01:29:37;3.05;;;1.83;;
9906;SDS011;4992;51.628;6.664;2023-03-24T01:32:03;1.60;;;1.50;;
9906;SDS011;4992;51.628;6.664;2023-03-24T01:34:28;2.58;;;1.85;;
9906;SDS011;4992;51.628;6.664;2023-03-24T01:36:54;2.17;;;1.40;;
9906;SDS011;4992;51.628;6.664;2023-03-24T01:39:20;2.13;;;1.60;;
9906;SDS011;4992;51.628;6.664;2023-03-24T01:41:45;2.70;;;1.67;;
9906;SDS011;4992;51.628;6.664;2023-03-24T01:46:51;1.92;;;1.70;;
9906;SDS011;4992;51.628;6.664;2023-03-24T01:49:18;2.70;;;1.60;;
9906;SDS011;4992;51.628;6.664;2023-03-24T01:51:45;1.73;;;1.63;;
9906;SDS011;4992;51.628;6.664;2023-03-24T01:54:18;2.30;;;1.58;;
9906;SDS011;4992;51.628;6.664;2023-03-24T01:56:47;5.68;;;1.80;;
9906;SDS011;4992;51.628;6.664;2023-03-24T01:59:24;1.77;;;1.67;;
9906;SDS011;4992;51.628;6.664;2023-03-24T02:01:52;3.00;;;1.60;;
9906;SDS011;4992;51.628;6.664;2023-03-24T02:04:37;1.77;;;1.67;;
9906;SDS011;4992;51.628;6.664;2023-03-24T02:07:11;2.53;;;2.08;;
9906;SDS011;4992;51.628;6.664;2023-03-24T02:09:52;1.77;;;1.60;;
9906;SDS011;4992;51.628;6.664;2023-03-24T02:12:18;1.98;;;1.77;;
9906;SDS011;4992;51.628;6.664;2023-03-24T02:14:43;2.15;;;1.30;;
9906;SDS011;4992;51.628;6.664;2023-03-24T02:28:01;3.83;;;2.30;;
9906;SDS011;4992;51.628;6.664;2023-03-24T02:46:43;2.20;;;2.10;;
9906;SDS011;4992;51.628;6.664;2023-03-24T02:52:15;3.30;;;2.35;;
9906;SDS011;4992;51.628;6.664;2023-03-24T02:55:03;3.13;;;2.30;;
9906;SDS011;4992;51.628;6.664;2023-03-24T02:57:43;3.85;;;2.95;;
9906;SDS011;4992;51.628;6.664;2023-03-24T03:00:13;2.63;;;2.42;;
9906;SDS011;4992;51.628;6.664;2023-03-24T03:02:51;2.35;;;2.15;;
9906;SDS011;4992;51.628;6.664;2023-03-24T03:05:27;2.55;;;2.30;;
9906;SDS011;4992;51.628;6.664;2023-03-24T03:07:57;4.85;;;2.65;;
9906;SDS011;4992;51.628;6.664;2023-03-24T03:10:28;2.30;;;2.13;;
9906;SDS011;4992;51.628;6.664;2023-03-24T03:12:58;2.60;;;2.33;;
9906;SDS011;4992;51.628;6.664;2023-03-24T03:15:31;2.85;;;2.53;;
9906;SDS011;4992;51.628;6.664;2023-03-24T03:18:13;3.38;;;1.98;;
9906;SDS011;4992;51.628;6.664;2023-03-24T03:20:47;2.30;;;2.10;;
9906;SDS011;4992;51.628;6.664;2023-03-24T03:23:20;3.08;;;2.15;;
9906;SDS011;4992;51.628;6.664;2023-03-24T03:25:54;2.55;;;2.30;;
9906;SDS011;4992;51.628;6.664;2023-03-24T03:28:29;2.38;;;2.17;;
9906;SDS011;4992;51.628;6.664;2023-03-24T03:30:58;3.50;;;2.00;;
9906;SDS011;4992;51.628;6.664;2023-03-24T03:33:30;3.03;;;2.03;;
9906;SDS011;4992;51.628;6.664;2023-03-24T03:36:05;2.80;;;1.70;;
9906;SDS011;4992;51.628;6.664;2023-03-24T03:41:24;3.45;;;2.20;;
9906;SDS011;4992;51.628;6.664;2023-03-24T03:43:50;2.75;;;2.00;;
9906;SDS011;4992;51.628;6.664;2023-03-24T03:46:16;2.00;;;1.80;;
9906;SDS011;4992;51.628;6.664;2023-03-24T03:48:42;2.50;;;2.28;;
9906;SDS011;4992;51.628;6.664;2023-03-24T03:51:10;2.47;;;2.28;;
9906;SDS011;4992;51.628;6.664;2023-03-24T03:53:43;2.08;;;1.85;;
9906;SDS011;4992;51.628;6.664;2023-03-24T03:56:13;2.70;;;2.10;;
9906;SDS011;4992;51.628;6.664;2023-03-24T03:58:44;2.08;;;1.88;;
9906;SDS011;4992;51.628;6.664;2023-03-24T04:01:17;1.70;;;1.60;;
9906;SDS011;4992;51.628;6.664;2023-03-24T04:03:50;1.60;;;1.40;;
9906;SDS011;4992;51.628;6.664;2023-03-24T04:12:13;1.92;;;1.73;;
9906;SDS011;4992;51.628;6.664;2023-03-24T04:14:54;1.83;;;1.45;;
9906;SDS011;4992;51.628;6.664;2023-03-24T04:17:49;1.90;;;1.80;;
9906;SDS011;4992;51.628;6.664;2023-03-24T04:20:47;1.92;;;1.60;;
9906;SDS011;4992;51.628;6.664;2023-03-24T04:31:28;2.47;;;2.03;;
9906;SDS011;4992;51.628;6.664;2023-03-24T04:34:03;2.42;;;2.22;;
9906;SDS011;4992;51.628;6.664;2023-03-24T04:39:09;3.75;;;2.53;;
9906;SDS011;4992;51.628;6.664;2023-03-24T04:41:39;6.78;;;2.85;;
9906;SDS011;4992;51.628;6.664;2023-03-24T04:44:07;2.50;;;2.30;;
9906;SDS011;4992;51.628;6.664;2023-03-24T04:46:34;3.38;;;2.58;;
9906;SDS011;4992;51.628;6.664;2023-03-24T04:49:02;2.85;;;2.45;;
9906;SDS011;4992;51.628;6.664;2023-03-24T04:51:29;4.05;;;2.72;;
9906;SDS011;4992;51.628;6.664;2023-03-24T04:53:56;2.25;;;2.05;;
9906;SDS011;4992;51.628;6.664;2023-03-24T04:56:42;2.22;;;1.40;;
9906;SDS011;4992;51.628;6.664;2023-03-24T04:59:11;2.53;;;1.20;;
9906;SDS011;4992;51.628;6.664;2023-03-24T05:01:38;2.97;;;1.13;;
9906;SDS011;4992;51.628;6.664;2023-03-24T05:04:04;4.47;;;0.98;;
9906;SDS011;4992;51.628;6.664;2023-03-24T05:06:30;1.25;;;1.08;;
9906;SDS011;4992;51.628;6.664;2023-03-24T05:08:57;3.60;;;1.10;;
9906;SDS011;4992;51.628;6.664;2023-03-24T05:11:23;2.80;;;0.80;;
9906;SDS011;4992;51.628;6.664;2023-03-24T05:13:50;2.03;;;0.75;;
9906;SDS011;4992;51.628;6.664;2023-03-24T05:16:16;2.33;;;1.10;;
9906;SDS011;4992;51.628;6.664;2023-03-24T05:18:41;4.47;;;1.00;;
9906;SDS011;4992;51.628;6.664;2023-03-24T05:21:07;1.58;;;0.70;;
9906;SDS011;4992;51.628;6.664;2023-03-24T05:23:33;4.70;;;1.20;;
9906;SDS011;4992;51.628;6.664;2023-03-24T05:25:59;2.28;;;1.20;;
9906;SDS011;4992;51.628;6.664;2023-03-24T05:28:25;4.32;;;1.65;;
9906;SDS011;4992;51.628;6.664;2023-03-24T05:30:50;4.70;;;1.58;;
9906;SDS011;4992;51.628;6.664;2023-03-24T05:33:16;4.82;;;2.58;;
9906;SDS011;4992;51.628;6.664;2023-03-24T05:35:41;6.45;;;3.05;;
9906;SDS011;4992;51.628;6.664;2023-03-24T05:38:07;5.18;;;2.90;;
9906;SDS011;4992;51.628;6.664;2023-03-24T05:40:33;4.40;;;3.00;;
9906;SDS011;4992;51.628;6.664;2023-03-24T05:42:59;5.20;;;3.58;;
9906;SDS011;4992;51.628;6.664;2023-03-24T05:45:25;5.45;;;3.20;;
9906;SDS011;4992;51.628;6.664;2023-03-24T05:47:51;5.18;;;3.20;;
9906;SDS011;4992;51.628;6.664;2023-03-24T05:50:16;5.30;;;2.67;;
9906;SDS011;4992;51.628;6.664;2023-03-24T05:52:42;4.72;;;2.55;;
9906;SDS011;4992;51.628;6.664;2023-03-24T05:55:08;3.97;;;2.55;;
9906;SDS011;4992;51.628;6.664;2023-03-24T05:57:35;4.82;;;2.63;;
9906;SDS011;4992;51.628;6.664;2023-03-24T06:00:01;6.47;;;2.65;;
9906;SDS011;4992;51.628;6.664;2023-03-24T06:02:34;5.47;;;2.70;;
9906;SDS011;4992;51.628;6.664;2023-03-24T06:04:59;4.03;;;2.45;;
9906;SDS011;4992;51.628;6.664;2023-03-24T06:07:25;5.93;;;2.55;;
9906;SDS011;4992;51.628;6.664;2023-03-24T06:09:54;7.53;;;2.85;;
9906;SDS011;4992;51.628;6.664;2023-03-24T06:12:21;7.78;;;2.60;;
9906;SDS011;4992;51.628;6.664;2023-03-24T06:14:47;7.18;;;2.22;;
9906;SDS011;4992;51.628;6.664;2023-03-24T06:17:13;4.45;;;2.05;;
9906;SDS011;4992;51.628;6.664;2023-03-24T06:19:40;8.23;;;2.22;;
9906;SDS011;4992;51.628;6.664;2023-03-24T06:22:12;5.30;;;2.23;;
9906;SDS011;4992;51.628;6.664;2023-03-24T06:24:38;4.90;;;2.00;;
9906;SDS011;4992;51.628;6.664;2023-03-24T06:27:04;7.77;;;4.07;;
9906;SDS011;4992;51.628;6.664;2023-03-24T06:29:33;4.53;;;2.07;;
9906;SDS011;4992;51.628;6.664;2023-03-24T06:32:00;7.20;;;2.30;;
9906;SDS011;4992;51.628;6.664;2023-03-24T06:34:26;5.57;;;2.17;;
9906;SDS011;4992;51.628;6.664;2023-03-24T06:36:53;5.20;;;1.90;;
9906;SDS011;4992;51.628;6.664;2023-03-24T06:39:19;6.37;;;2.13;;
9906;SDS011;4992;51.628;6.664;2023-03-24T06:41:45;6.83;;;2.23;;
9906;SDS011;4992;51.628;6.664;2023-03-24T06:44:11;5.60;;;1.80;;
9906;SDS011;4992;51.628;6.664;2023-03-24T06:46:37;6.88;;;1.63;;
9906;SDS011;4992;51.628;6.664;2023-03-24T06:49:04;5.30;;;1.53;;
9906;SDS011;4992;51.628;6.664;2023-03-24T06:51:29;6.53;;;1.70;;
9906;SDS011;4992;51.628;6.664;2023-03-24T06:53:55;6.60;;;1.63;;
9906;SDS011;4992;51.628;6.664;2023-03-24T06:56:20;7.10;;;1.80;;
9906;SDS011;4992;51.628;6.664;2023-03-24T06:58:46;9.35;;;1.55;;
9906;SDS011;4992;51.628;6.664;2023-03-24T07:01:13;7.55;;;1.88;;
9906;SDS011;4992;51.628;6.664;2023-03-24T07:03:38;10.00;;;1.63;;
9906;SDS011;4992;51.628;6.664;2023-03-24T07:06:05;9.32;;;1.48;;
9906;SDS011;4992;51.628;6.664;2023-03-24T07:08:31;8.53;;;2.17;;
9906;SDS011;4992;51.628;6.664;2023-03-24T07:10:57;5.75;;;1.75;;
9906;SDS011;4992;51.628;6.664;2023-03-24T07:13:23;7.10;;;1.58;;
9906;SDS011;4992;51.628;6.664;2023-03-24T07:15:49;3.50;;;1.35;;
9906;SDS011;4992;51.628;6.664;2023-03-24T07:18:15;7.55;;;1.25;;
9906;SDS011;4992;51.628;6.664;2023-03-24T07:20:42;6.60;;;1.40;;
9906;SDS011;4992;51.628;6.664;2023-03-24T07:23:10;5.55;;;1.20;;
9906;SDS011;4992;51.628;6.664;2023-03-24T07:25:36;4.57;;;1.70;;
9906;SDS011;4992;51.628;6.664;2023-03-24T07:28:03;6.28;;;1.55;;
9906;SDS011;4992;51.628;6.664;2023-03-24T07:30:29;5.93;;;1.65;;
9906;SDS011;4992;51.628;6.664;2023-03-24T07:32:55;7.30;;;1.60;;
9906;SDS011;4992;51.628;6.664;2023-03-24T07:35:20;7.05;;;1.23;;
9906;SDS011;4992;51.628;6.664;2023-03-24T07:37:46;9.63;;;1.73;;
9906;SDS011;4992;51.628;6.664;2023-03-24T07:40:12;7.43;;;1.40;;
9906;SDS011;4992;51.628;6.664;2023-03-24T07:42:42;8.05;;;1.52;;
9906;SDS011;4992;51.628;6.664;2023-03-24T07:45:08;7.63;;;1.60;;
9906;SDS011;4992;51.628;6.664;2023-03-24T07:47:36;8.75;;;1.63;;
9906;SDS011;4992;51.628;6.664;2023-03-24T07:50:02;6.10;;;1.65;;
9906;SDS011;4992;51.628;6.664;2023-03-24T07:52:33;6.85;;;2.20;;
9906;SDS011;4992;51.628;6.664;2023-03-24T07:55:00;7.03;;;1.33;;
9906;SDS011;4992;51.628;6.664;2023-03-24T07:57:26;7.25;;;1.50;;
9906;SDS011;4992;51.628;6.664;2023-03-24T07:59:51;9.45;;;1.70;;
9906;SDS011;4992;51.628;6.664;2023-03-24T08:02:18;10.95;;;4.35;;
9906;SDS011;4992;51.628;6.664;2023-03-24T08:04:44;10.15;;;2.70;;
9906;SDS011;4992;51.628;6.664;2023-03-24T08:07:10;8.38;;;2.03;;
9906;SDS011;4992;51.628;6.664;2023-03-24T08:09:38;5.55;;;1.95;;
9906;SDS011;4992;51.628;6.664;2023-03-24T08:12:04;8.75;;;2.40;;
9906;SDS011;4992;51.628;6.664;2023-03-24T08:14:30;6.82;;;1.60;;
9906;SDS011;4992;51.628;6.664;2023-03-24T08:16:56;10.73;;;2.25;;
9906;SDS011;4992;51.628;6.664;2023-03-24T08:19:21;8.88;;;1.77;;
9906;SDS011;4992;51.628;6.664;2023-03-24T08:21:47;7.25;;;1.52;;
9906;SDS011;4992;51.628;6.664;2023-03-24T08:24:12;7.93;;;1.50;;
9906;SDS011;4992;51.628;6.664;2023-03-24T08:26:38;6.78;;;1.35;;
9906;SDS011;4992;51.628;6.664;2023-03-24T08:29:04;10.23;;;1.70;;
9906;SDS011;4992;51.628;6.664;2023-03-24T08:31:33;9.07;;;1.30;;
9906;SDS011;4992;51.628;6.664;2023-03-24T08:34:00;7.75;;;1.55;;
9906;SDS011;4992;51.628;6.664;2023-03-24T08:36:26;5.82;;;1.58;;
9906;SDS011;4992;51.628;6.664;2023-03-24T08:38:53;5.93;;;1.40;;
9906;SDS011;4992;51.628;6.664;2023-03-24T08:41:19;8.48;;;1.90;;
9906;SDS011;4992;51.628;6.664;2023-03-24T08:43:46;9.48;;;1.60;;
9906;SDS011;4992;51.628;6.664;2023-03-24T08:46:12;5.82;;;1.42;;
9906;SDS011;4992;51.628;6.664;2023-03-24T08:48:39;5.32;;;1.50;;
9906;SDS011;4992;51.628;6.664;2023-03-24T08:51:09;9.75;;;4.18;;
9906;SDS011;4992;51.628;6.664;2023-03-24T08:53:36;7.45;;;1.70;;
9906;SDS011;4992;51.628;6.664;2023-03-24T08:56:01;8.10;;;2.15;;
9906;SDS011;4992;51.628;6.664;2023-03-24T08:58:27;8.55;;;1.67;;
9906;SDS011;4992;51.628;6.664;2023-03-24T09:00:52;7.68;;;1.50;;
9906;SDS011;4992;51.628;6.664;2023-03-24T09:03:18;8.45;;;1.60;;
9906;SDS011;4992;51.628;6.664;2023-03-24T09:05:46;6.72;;;1.55;;
9906;SDS011;4992;51.628;6.664;2023-03-24T09:08:13;8.63;;;2.00;;
9906;SDS011;4992;51.628;6.664;2023-03-24T09:10:40;6.38;;;1.50;;
9906;SDS011;4992;51.628;6.664;2023-03-24T09:13:07;7.28;;;2.05;;
9906;SDS011;4992;51.628;6.664;2023-03-24T09:15:34;8.68;;;1.88;;
9906;SDS011;4992;51.628;6.664;2023-03-24T09:18:00;7.13;;;1.65;;
9906;SDS011;4992;51.628;6.664;2023-03-24T09:20:26;8.25;;;2.05;;
9906;SDS011;4992;51.628;6.664;2023-03-24T09:22:52;8.20;;;1.85;;
9906;SDS011;4992;51.628;6.664;2023-03-24T09:25:18;6.25;;;2.05;;
9906;SDS011;4992;51.628;6.664;2023-03-24T09:27:45;8.32;;;2.22;;
9906;SDS011;4992;51.628;6.664;2023-03-24T09:30:12;8.15;;;2.17;;
9906;SDS011;4992;51.628;6.664;2023-03-24T09:32:39;7.95;;;1.70;;
9906;SDS011;4992;51.628;6.664;2023-03-24T09:35:05;6.00;;;1.52;;
9906;SDS011;4992;51.628;6.664;2023-03-24T09:37:32;5.93;;;1.80;;
9906;SDS011;4992;51.628;6.664;2023-03-24T09:39:59;8.75;;;1.98;;
9906;SDS011;4992;51.628;6.664;2023-03-24T09:42:29;8.88;;;2.17;;
9906;SDS011;4992;51.628;6.664;2023-03-24T09:45:00;8.32;;;2.15;;
9906;SDS011;4992;51.628;6.664;2023-03-24T09:50:38;7.22;;;2.10;;
9906;SDS011;4992;51.628;6.664;2023-03-24T09:53:06;10.40;;;2.08;;
9906;SDS011;4992;51.628;6.664;2023-03-24T09:55:46;8.75;;;1.73;;
9906;SDS011;4992;51.628;6.664;2023-03-24T09:58:13;9.75;;;1.60;;
9906;SDS011;4992;51.628;6.664;2023-03-24T10:00:39;6.90;;;1.77;;
9906;SDS011;4992;51.628;6.664;2023-03-24T10:03:12;4.40;;;1.20;;
9906;SDS011;4992;51.628;6.664;2023-03-24T10:06:04;8.75;;;1.70;;
9906;SDS011;4992;51.628;6.664;2023-03-24T10:08:48;8.10;;;1.73;;
9906;SDS011;4992;51.628;6.664;2023-03-24T10:14:39;4.97;;;1.38;;
9906;SDS011;4992;51.628;6.664;2023-03-24T10:17:20;4.40;;;1.35;;
9906;SDS011;4992;51.628;6.664;2023-03-24T10:20:11;7.40;;;2.13;;
9906;SDS011;4992;51.628;6.664;2023-03-24T10:23:07;5.07;;;1.10;;
9906;SDS011;4992;51.628;6.664;2023-03-24T10:31:32;5.57;;;1.50;;
9906;SDS011;4992;51.628;6.664;2023-03-24T10:34:00;6.65;;;1.45;;
9906;SDS011;4992;51.628;6.664;2023-03-24T10:36:25;3.25;;;1.58;;
9906;SDS011;4992;51.628;6.664;2023-03-24T10:38:53;3.55;;;1.13;;
9906;SDS011;4992;51.628;6.664;2023-03-24T10:41:21;4.53;;;1.23;;
9906;SDS011;4992;51.628;6.664;2023-03-24T10:43:51;5.57;;;1.30;;
9906;SDS011;4992;51.628;6.664;2023-03-24T10:46:23;9.80;;;1.20;;
9906;SDS011;4992;51.628;6.664;2023-03-24T10:48:51;6.15;;;1.27;;
9906;SDS011;4992;51.628;6.664;2023-03-24T10:51:34;5.80;;;0.95;;
9906;SDS011;4992;51.628;6.664;2023-03-24T10:54:10;3.45;;;1.20;;
9906;SDS011;4992;51.628;6.664;2023-03-24T10:56:40;4.63;;;1.05;;
9906;SDS011;4992;51.628;6.664;2023-03-24T10:59:26;4.05;;;0.80;;
9906;SDS011;4992;51.628;6.664;2023-03-24T11:02:01;5.00;;;1.30;;
9906;SDS011;4992;51.628;6.664;2023-03-24T11:04:28;7.35;;;0.95;;
9906;SDS011;4992;51.628;6.664;2023-03-24T11:06:59;4.28;;;1.40;;
9906;SDS011;4992;51.628;6.664;2023-03-24T11:09:37;7.50;;;1.25;;
9906;SDS011;4992;51.628;6.664;2023-03-24T11:12:26;5.77;;;1.70;;
9906;SDS011;4992;51.628;6.664;2023-03-24T11:15:02;3.70;;;1.10;;
9906;SDS011;4992;51.628;6.664;2023-03-24T11:17:43;8.27;;;1.70;;
9906;SDS011;4992;51.628;6.664;2023-03-24T11:23:07;5.38;;;1.75;;
9906;SDS011;4992;51.628;6.664;2023-03-24T11:25:38;6.20;;;1.30;;
9906;SDS011;4992;51.628;6.664;2023-03-24T11:28:06;3.78;;;1.05;;
9906;SDS011;4992;51.628;6.664;2023-03-24T11:30:50;6.68;;;1.38;;
9906;SDS011;4992;51.628;6.664;2023-03-24T11:33:19;5.28;;;1.35;;
9906;SDS011;4992;51.628;6.664;2023-03-24T11:35:49;5.85;;;1.33;;
9906;SDS011;4992;51.628;6.664;2023-03-24T11:38:16;8.20;;;1.45;;
9906;SDS011;4992;51.628;6.664;2023-03-24T11:40:53;7.00;;;1.70;;
9906;SDS011;4992;51.628;6.664;2023-03-24T11:43:25;5.25;;;1.52;;
9906;SDS011;4992;51.628;6.664;2023-03-24T11:46:15;2.65;;;1.05;;
9906;SDS011;4992;51.628;6.664;2023-03-24T11:48:44;10.23;;;1.40;;
9906;SDS011;4992;51.628;6.664;2023-03-24T11:51:17;5.75;;;1.20;;
9906;SDS011;4992;51.628;6.664;2023-03-24T11:53:56;4.80;;;1.10;;
9906;SDS011;4992;51.628;6.664;2023-03-24T11:56:27;5.97;;;1.10;;
9906;SDS011;4992;51.628;6.664;2023-03-24T11:59:07;7.05;;;2.03;;
9906;SDS011;4992;51.628;6.664;2023-03-24T12:01:55;5.90;;;1.33;;
9906;SDS011;4992;51.628;6.664;2023-03-24T12:13:34;3.88;;;0.85;;
9906;SDS011;4992;51.628;6.664;2023-03-24T12:16:27;5.53;;;1.25;;
9906;SDS011;4992;51.628;6.664;2023-03-24T12:22:03;5.70;;;1.48;;
9906;SDS011;4992;51.628;6.664;2023-03-24T12:24:55;4.63;;;1.55;;
9906;SDS011;4992;51.628;6.664;2023-03-24T12:27:27;5.25;;;1.13;;
9906;SDS011;4992;51.628;6.664;2023-03-24T12:30:26;5.18;;;1.13;;
9906;SDS011;4992;51.628;6.664;2023-03-24T12:46:24;7.15;;;1.40;;
9906;SDS011;4992;51.628;6.664;2023-03-24T12:49:07;4.63;;;1.27;;
9906;SDS011;4992;51.628;6.664;2023-03-24T12:57:01;5.82;;;1.40;;
9906;SDS011;4992;51.628;6.664;2023-03-24T12:59:35;6.22;;;1.23;;
9906;SDS011;4992;51.628;6.664;2023-03-24T13:02:21;5.55;;;1.08;;
9906;SDS011;4992;51.628;6.664;2023-03-24T13:04:48;4.75;;;1.02;;
9906;SDS011;4992;51.628;6.664;2023-03-24T13:07:18;7.03;;;1.50;;
9906;SDS011;4992;51.628;6.664;2023-03-24T13:09:56;8.00;;;1.98;;
9906;SDS011;4992;51.628;6.664;2023-03-24T13:15:21;8.32;;;3.72;;
9906;SDS011;4992;51.628;6.664;2023-03-24T13:17:58;4.25;;;1.58;;
9906;SDS011;4992;51.628;6.664;2023-03-24T13:20:42;3.10;;;1.00;;
9906;SDS011;4992;51.628;6.664;2023-03-24T13:28:37;3.15;;;1.10;;
9906;SDS011;4992;51.628;6.664;2023-03-24T13:31:10;4.47;;;1.25;;
9906;SDS011;4992;51.628;6.664;2023-03-24T13:33:37;8.18;;;1.88;;
9906;SDS011;4992;51.628;6.664;2023-03-24T13:38:50;2.72;;;0.80;;
9906;SDS011;4992;51.628;6.664;2023-03-24T13:41:24;6.28;;;0.90;;
9906;SDS011;4992;51.628;6.664;2023-03-24T13:43:59;2.80;;;1.00;;
9906;SDS011;4992;51.628;6.664;2023-03-24T13:46:59;4.93;;;0.75;;
9906;SDS011;4992;51.628;6.664;2023-03-24T13:49:31;2.70;;;0.70;;
9906;SDS011;4992;51.628;6.664;2023-03-24T13:51:57;2.78;;;0.60;;
9906;SDS011;4992;51.628;6.664;2023-03-24T13:54:27;1.48;;;0.40;;
9906;SDS011;4992;51.628;6.664;2023-03-24T13:56:54;1.15;;;0.60;;
9906;SDS011;4992;51.628;6.664;2023-03-24T14:04:49;1.63;;;0.70;;
9906;SDS011;4992;51.628;6.664;2023-03-24T14:23:22;1.60;;;0.90;;
9906;SDS011;4992;51.628;6.664;2023-03-24T14:26:03;2.20;;;1.08;;
9906;SDS011;4992;51.628;6.664;2023-03-24T14:33:43;3.13;;;0.60;;
9906;SDS011;4992;51.628;6.664;2023-03-24T14:36:31;2.00;;;0.73;;
9906;SDS011;4992;51.628;6.664;2023-03-24T14:39:11;2.13;;;1.05;;
9906;SDS011;4992;51.628;6.664;2023-03-24T14:41:56;1.52;;;0.70;;
9906;SDS011;4992;51.628;6.664;2023-03-24T14:47:15;1.83;;;0.70;;
9906;SDS011;4992;51.628;6.664;2023-03-24T14:49:44;2.47;;;0.82;;
9906;SDS011;4992;51.628;6.664;2023-03-24T14:52:11;2.50;;;0.68;;
9906;SDS011;4992;51.628;6.664;2023-03-24T14:54:38;2.22;;;0.75;;
9906;SDS011;4992;51.628;6.664;2023-03-24T14:57:25;0.93;;;0.45;;
9906;SDS011;4992;51.628;6.664;2023-03-24T15:02:41;1.95;;;0.60;;
9906;SDS011;4992;51.628;6.664;2023-03-24T15:07:38;2.65;;;1.10;;
9906;SDS011;4992;51.628;6.664;2023-03-24T15:10:05;2.75;;;0.95;;
9906;SDS011;4992;51.628;6.664;2023-03-24T15:12:37;3.13;;;0.60;;
9906;SDS011;4992;51.628;6.664;2023-03-24T15:15:22;2.15;;;0.60;;
9906;SDS011;4992;51.628;6.664;2023-03-24T15:17:49;4.97;;;0.80;;
9906;SDS011;4992;51.628;6.664;2023-03-24T15:20:20;1.33;;;0.77;;
9906;SDS011;4992;51.628;6.664;2023-03-24T15:22:46;2.13;;;0.73;;
9906;SDS011;4992;51.628;6.664;2023-03-24T15:25:12;2.35;;;0.80;;
9906;SDS011;4992;51.628;6.664;2023-03-24T15:27:39;1.83;;;0.75;;
9906;SDS011;4992;51.628;6.664;2023-03-24T15:30:05;2.35;;;0.98;;
9906;SDS011;4992;51.628;6.664;2023-03-24T15:32:37;3.00;;;0.70;;
9906;SDS011;4992;51.628;6.664;2023-03-24T15:35:05;2.85;;;0.70;;
9906;SDS011;4992;51.628;6.664;2023-03-24T15:37:32;2.15;;;0.70;;
9906;SDS011;4992;51.628;6.664;2023-03-24T15:40:00;3.08;;;0.98;;
9906;SDS011;4992;51.628;6.664;2023-03-24T15:42:27;1.85;;;0.50;;
9906;SDS011;4992;51.628;6.664;2023-03-24T15:44:53;1.85;;;0.52;;
9906;SDS011;4992;51.628;6.664;2023-03-24T15:49:54;0.82;;;0.45;;
9906;SDS011;4992;51.628;6.664;2023-03-24T15:52:33;1.80;;;0.70;;
9906;SDS011;4992;51.628;6.664;2023-03-24T15:55:06;3.15;;;0.93;;
9906;SDS011;4992;51.628;6.664;2023-03-24T15:57:52;2.38;;;0.70;;
9906;SDS011;4992;51.628;6.664;2023-03-24T16:00:24;2.10;;;0.70;;
9906;SDS011;4992;51.628;6.664;2023-03-24T16:02:54;1.98;;;0.70;;
9906;SDS011;4992;51.628;6.664;2023-03-24T16:05:25;3.83;;;0.80;;
9906;SDS011;4992;51.628;6.664;2023-03-24T16:08:01;2.05;;;0.70;;
9906;SDS011;4992;51.628;6.664;2023-03-24T16:15:46;3.60;;;1.00;;
9906;SDS011;4992;51.628;6.664;2023-03-24T16:18:29;3.25;;;1.48;;
9906;SDS011;4992;51.628;6.664;2023-03-24T16:21:08;3.20;;;0.98;;
9906;SDS011;4992;51.628;6.664;2023-03-24T16:23:40;1.02;;;0.80;;
9906;SDS011;4992;51.628;6.664;2023-03-24T16:26:08;2.33;;;0.98;;
9906;SDS011;4992;51.628;6.664;2023-03-24T16:28:38;3.78;;;0.98;;
9906;SDS011;4992;51.628;6.664;2023-03-24T16:31:04;4.93;;;1.10;;
9906;SDS011;4992;51.628;6.664;2023-03-24T16:33:30;3.45;;;1.00;;
9906;SDS011;4992;51.628;6.664;2023-03-24T16:35:56;3.95;;;1.10;;
9906;SDS011;4992;51.628;6.664;2023-03-24T16:38:23;2.10;;;1.10;;
9906;SDS011;4992;51.628;6.664;2023-03-24T16:40:53;3.83;;;1.10;;
9906;SDS011;4992;51.628;6.664;2023-03-24T16:43:20;4.47;;;1.33;;
9906;SDS011;4992;51.628;6.664;2023-03-24T16:45:46;5.00;;;1.10;;
9906;SDS011;4992;51.628;6.664;2023-03-24T16:48:14;4.35;;;0.77;;
9906;SDS011;4992;51.628;6.664;2023-03-24T16:50:41;3.22;;;0.75;;
9906;SDS011;4992;51.628;6.664;2023-03-24T16:53:09;3.00;;;0.98;;
9906;SDS011;4992;51.628;6.664;2023-03-24T16:55:35;2.10;;;0.90;;
9906;SDS011;4992;51.628;6.664;2023-03-24T16:58:03;3.53;;;1.10;;
9906;SDS011;4992;51.628;6.664;2023-03-24T17:00:29;3.70;;;0.85;;
9906;SDS011;4992;51.628;6.664;2023-03-24T17:02:55;2.97;;;0.80;;
9906;SDS011;4992;51.628;6.664;2023-03-24T17:05:24;2.17;;;0.52;;
9906;SDS011;4992;51.628;6.664;2023-03-24T17:07:52;3.75;;;0.80;;
9906;SDS011;4992;51.628;6.664;2023-03-24T17:10:19;2.20;;;0.70;;
9906;SDS011;4992;51.628;6.664;2023-03-24T17:12:46;1.70;;;0.63;;
9906;SDS011;4992;51.628;6.664;2023-03-24T17:15:14;4.05;;;1.00;;
9906;SDS011;4992;51.628;6.664;2023-03-24T17:17:43;1.73;;;0.50;;
9906;SDS011;4992;51.628;6.664;2023-03-24T17:20:09;2.30;;;0.60;;
9906;SDS011;4992;51.628;6.664;2023-03-24T17:22:35;3.20;;;0.80;;
9906;SDS011;4992;51.628;6.664;2023-03-24T17:25:01;3.50;;;0.60;;
9906;SDS011;4992;51.628;6.664;2023-03-24T17:27:28;2.28;;;0.55;;
9906;SDS011;4992;51.628;6.664;2023-03-24T17:29:54;1.77;;;0.40;;
9906;SDS011;4992;51.628;6.664;2023-03-24T17:32:19;2.95;;;0.80;;
9906;SDS011;4992;51.628;6.664;2023-03-24T17:34:45;1.80;;;0.57;;
9906;SDS011;4992;51.628;6.664;2023-03-24T17:37:11;2.33;;;0.80;;
9906;SDS011;4992;51.628;6.664;2023-03-24T17:39:36;2.88;;;0.65;;
9906;SDS011;4992;51.628;6.664;2023-03-24T17:42:03;1.88;;;0.63;;
9906;SDS011;4992;51.628;6.664;2023-03-24T17:44:29;4.47;;;1.02;;
9906;SDS011;4992;51.628;6.664;2023-03-24T17:46:54;1.85;;;0.70;;
9906;SDS011;4992;51.628;6.664;2023-03-24T17:49:20;2.17;;;0.60;;
9906;SDS011;4992;51.628;6.664;2023-03-24T17:51:46;2.05;;;0.77;;
9906;SDS011;4992;51.628;6.664;2023-03-24T17:54:11;1.75;;;0.57;;
9906;SDS011;4992;51.628;6.664;2023-03-24T17:56:37;3.30;;;0.80;;
9906;SDS011;4992;51.628;6.664;2023-03-24T17:59:03;5.57;;;0.88;;
9906;SDS011;4992;51.628;6.664;2023-03-24T18:01:30;2.00;;;0.60;;
9906;SDS011;4992;51.628;6.664;2023-03-24T18:03:58;2.80;;;0.70;;